createdAt,value
2019-01-23T00:00:49.308Z,50.23
2019-01-23T00:03:18.320Z,50.33
2019-01-23T00:05:47.334Z,53.48
2019-01-23T00:08:16.237Z,46.05
2019-01-23T00:10:45.237Z,55.25
2019-01-23T00:13:14.096Z,59.35
2019-01-23T00:15:43.165Z,54.95
2019-01-23T00:18:12.172Z,58.33
2019-01-23T00:20:41.169Z,62.17
2019-01-23T00:23:10.103Z,53.45
2019-01-23T00:25:40.083Z,53.68
2019-01-23T00:28:09.083Z,56.70
2019-01-23T00:30:37.985Z,50.43
2019-01-23T00:33:06.954Z,53.65
2019-01-23T00:35:35.861Z,54.30
2019-01-23T00:38:04.962Z,60.08
2019-01-23T00:40:34.250Z,53.00
2019-01-23T00:43:03.159Z,49.03
2019-01-23T00:45:32.150Z,56.80
2019-01-23T00:48:01.078Z,57.70
2019-01-23T00:50:29.926Z,61.65
2019-01-23T00:52:58.830Z,69.20
2019-01-23T00:55:29.937Z,50.17
2019-01-23T00:57:58.783Z,62.10
2019-01-23T01:00:27.897Z,61.35
2019-01-23T01:02:56.864Z,58.08
2019-01-23T01:05:25.846Z,60.85
2019-01-23T01:07:54.785Z,52.65
2019-01-23T01:10:23.709Z,62.93
2019-01-23T01:12:52.717Z,55.48
2019-01-23T01:15:21.720Z,54.13
2019-01-23T01:17:50.711Z,63.40
2019-01-23T01:20:19.686Z,61.48
2019-01-23T01:22:48.688Z,63.10
2019-01-23T01:25:18.109Z,56.83
2019-01-23T01:27:47.087Z,60.75
2019-01-23T01:30:21.526Z,57.90
2019-01-23T01:32:50.522Z,55.33
2019-01-23T01:35:19.506Z,56.85
2019-01-23T01:37:49.932Z,64.53
2019-01-23T01:40:19.775Z,56.73
2019-01-23T01:42:48.755Z,54.73
2019-01-23T01:45:17.865Z,51.08
2019-01-23T01:47:46.843Z,63.95
2019-01-23T01:50:20.985Z,61.95
2019-01-23T01:52:49.954Z,64.85
2019-01-23T01:55:18.931Z,59.18
2019-01-23T01:57:47.922Z,61.05
2019-01-23T02:00:22.327Z,60.88
2019-01-23T02:02:51.241Z,64.65
2019-01-23T02:05:20.544Z,73.15
2019-01-23T02:07:49.561Z,66.60
2019-01-23T02:10:20.524Z,62.05
2019-01-23T02:12:50.214Z,82.75
2019-01-23T02:15:20.354Z,50.45
2019-01-23T02:17:49.355Z,60.40
2019-01-23T02:20:25.938Z,69.27
2019-01-23T02:22:55.887Z,65.00
2019-01-23T02:25:24.934Z,65.92
2019-01-23T02:27:53.991Z,68.75
2019-01-23T02:30:24.504Z,62.88
2019-01-23T02:32:53.471Z,60.52
2019-01-23T02:35:22.465Z,56.58
2019-01-23T02:37:51.454Z,64.90
2019-01-23T02:40:24.095Z,57.10
2019-01-23T02:42:53.087Z,59.65
2019-01-23T02:45:23.328Z,68.57
2019-01-23T02:47:52.396Z,70.40
2019-01-23T02:50:21.400Z,71.47
2019-01-23T02:52:50.463Z,61.28
2019-01-23T02:55:19.445Z,57.65
2019-01-23T02:57:48.349Z,64.53
2019-01-23T03:00:18.713Z,63.23
2019-01-23T03:02:48.316Z,61.55
2019-01-23T03:05:19.589Z,59.67
2019-01-23T03:07:48.578Z,64.45
2019-01-23T03:10:19.903Z,65.17
2019-01-23T03:12:50.881Z,63.55
2019-01-23T03:15:19.964Z,58.23
2019-01-23T03:17:48.943Z,61.68
2019-01-23T03:20:19.470Z,68.95
2019-01-23T03:22:50.465Z,68.33
2019-01-23T03:25:19.445Z,68.87
2019-01-23T03:27:48.479Z,69.67
2019-01-23T03:30:22.305Z,61.25
2019-01-23T03:32:51.308Z,65.55
2019-01-23T03:35:20.282Z,70.12
2019-01-23T03:37:49.271Z,65.00
2019-01-23T03:40:19.817Z,63.02
2019-01-23T03:42:49.150Z,62.27
2019-01-23T03:45:18.357Z,58.65
2019-01-23T03:47:47.350Z,67.47
2019-01-23T03:50:17.726Z,65.75
2019-01-23T03:52:46.701Z,62.38
2019-01-23T03:55:16.126Z,71.57
2019-01-23T03:57:45.130Z,66.02
2019-01-23T04:00:16.340Z,71.72
2019-01-23T04:02:46.619Z,64.85
2019-01-23T04:05:16.628Z,58.30
2019-01-23T04:07:45.727Z,73.75
2019-01-23T04:10:15.257Z,57.73
2019-01-23T04:12:44.249Z,65.78
2019-01-23T04:15:14.161Z,58.50
2019-01-23T04:17:43.178Z,61.77
2019-01-23T04:20:14.336Z,61.63
2019-01-23T04:22:43.701Z,60.73
2019-01-23T04:25:12.981Z,67.15
2019-01-23T04:27:41.964Z,62.67
2019-01-23T04:30:13.862Z,58.45
2019-01-23T04:32:42.693Z,54.80
2019-01-23T04:35:12.774Z,63.10
2019-01-23T04:37:42.785Z,62.90
2019-01-23T04:40:12.066Z,60.83
2019-01-23T04:42:41.012Z,61.68
2019-01-23T04:45:11.308Z,56.10
2019-01-23T04:47:40.220Z,53.33
2019-01-23T04:50:10.678Z,61.75
2019-01-23T04:52:54.573Z,76.57
2019-01-23T04:55:23.464Z,67.27
2019-01-23T04:57:52.364Z,62.05
2019-01-23T05:00:23.481Z,58.70
2019-01-23T05:02:52.370Z,69.10
2019-01-23T05:05:21.379Z,64.37
2019-01-23T05:07:50.261Z,60.58
2019-01-23T05:10:19.250Z,62.50
2019-01-23T05:12:48.131Z,58.15
2019-01-23T05:15:17.077Z,59.23
2019-01-23T05:17:45.958Z,60.45
2019-01-23T05:20:14.937Z,55.63
2019-01-23T05:22:44.017Z,56.95
2019-01-23T05:25:13.280Z,58.05
2019-01-23T05:27:42.190Z,54.55
2019-01-23T05:30:15.321Z,65.05
2019-01-23T05:32:44.296Z,72.78
2019-01-23T05:35:13.255Z,54.83
2019-01-23T05:37:42.225Z,67.72
2019-01-23T05:40:12.245Z,60.10
2019-01-23T05:42:41.681Z,67.80
2019-01-23T05:45:10.726Z,65.28
2019-01-23T05:47:39.657Z,61.48
2019-01-23T05:50:11.136Z,55.38
2019-01-23T05:52:40.114Z,58.42
2019-01-23T05:55:10.263Z,64.58
2019-01-23T05:57:39.095Z,66.80
2019-01-23T06:00:11.049Z,58.35
2019-01-23T06:02:40.047Z,64.70
2019-01-23T06:05:10.041Z,65.03
2019-01-23T06:07:38.929Z,72.08
2019-01-23T06:10:07.981Z,70.72
2019-01-23T06:12:36.873Z,64.22
2019-01-23T06:15:06.728Z,60.08
2019-01-23T06:17:35.748Z,73.45
2019-01-23T06:20:06.836Z,73.92
2019-01-23T06:22:35.716Z,66.17
2019-01-23T06:25:04.785Z,63.52
2019-01-23T06:27:33.595Z,57.88
2019-01-23T06:30:10.367Z,62.53
2019-01-23T06:32:37.946Z,67.45
2019-01-23T06:35:06.928Z,61.85
2019-01-23T06:37:36.857Z,58.02
2019-01-23T06:40:07.899Z,70.15
2019-01-23T06:42:36.866Z,64.03
2019-01-23T06:45:06.874Z,61.18
2019-01-23T06:47:36.261Z,92.05
2019-01-23T06:50:07.260Z,53.65
2019-01-23T06:52:36.173Z,62.80
2019-01-23T06:55:05.300Z,57.78
2019-01-23T06:57:34.221Z,54.58
2019-01-23T07:00:03.123Z,60.00
2019-01-23T07:02:32.095Z,65.28
2019-01-23T07:05:01.665Z,67.00
2019-01-23T07:07:30.557Z,65.42
2019-01-23T07:09:59.385Z,56.25
2019-01-23T07:12:28.192Z,63.20
2019-01-23T07:14:57.117Z,57.55
2019-01-23T07:17:26.026Z,55.40
2019-01-23T07:19:55.310Z,63.35
2019-01-23T07:22:30.262Z,63.13
2019-01-23T07:24:59.234Z,56.40
2019-01-23T07:27:28.100Z,76.62
2019-01-23T07:29:57.131Z,64.22
2019-01-23T07:32:26.057Z,65.62
2019-01-23T07:34:55.041Z,55.58
2019-01-23T07:37:23.949Z,49.88
2019-01-23T07:39:52.886Z,63.28
2019-01-23T07:42:21.870Z,67.15
2019-01-23T07:44:50.797Z,64.37
2019-01-23T07:47:19.650Z,70.85
2019-01-23T07:49:48.559Z,65.62
2019-01-23T07:52:17.864Z,66.40
2019-01-23T07:54:47.857Z,70.35
2019-01-23T07:57:16.709Z,64.40
2019-01-23T07:59:46.660Z,64.90
2019-01-23T08:02:15.965Z,66.50
2019-01-23T08:04:44.955Z,69.05
2019-01-23T08:07:14.947Z,78.60
2019-01-23T08:09:43.860Z,61.15
2019-01-23T08:12:12.763Z,65.28
2019-01-23T08:14:42.056Z,67.05
2019-01-23T08:17:12.361Z,60.30
2019-01-23T08:19:41.205Z,63.92
2019-01-23T08:22:11.256Z,66.47
2019-01-23T08:24:40.173Z,62.25
2019-01-23T08:27:09.157Z,73.33
2019-01-23T08:29:37.955Z,58.90
2019-01-23T08:32:06.957Z,65.08
2019-01-23T08:34:35.864Z,68.55
2019-01-23T08:37:04.965Z,63.73
2019-01-23T08:39:33.797Z,69.50
2019-01-23T08:42:02.704Z,61.15
2019-01-23T08:44:32.650Z,61.70
2019-01-23T08:47:01.630Z,69.80
2019-01-23T08:49:30.606Z,75.20
2019-01-23T08:51:59.513Z,65.60
2019-01-23T08:54:28.533Z,75.40
2019-01-23T08:56:57.546Z,70.08
2019-01-23T08:59:26.464Z,68.78
2019-01-23T09:01:55.454Z,69.58
2019-01-23T09:04:24.357Z,69.55
2019-01-23T09:06:53.358Z,67.03
2019-01-23T09:09:22.329Z,72.40
2019-01-23T09:11:51.235Z,66.90
2019-01-23T09:14:20.222Z,61.90
2019-01-23T09:16:50.282Z,72.53
2019-01-23T09:19:19.124Z,57.65
2019-01-23T09:21:49.568Z,66.00
2019-01-23T09:24:18.549Z,57.60
2019-01-23T09:26:47.538Z,66.90
2019-01-23T09:29:16.385Z,71.62
2019-01-23T09:32:12.813Z,61.65
2019-01-23T09:34:57.557Z,73.15
2019-01-23T09:38:20.114Z,72.95
2019-01-23T09:40:57.246Z,61.73
2019-01-23T09:43:51.640Z,57.80
2019-01-23T09:46:46.138Z,64.75
2019-01-23T09:49:56.060Z,63.50
2019-01-23T09:52:52.486Z,66.35
2019-01-23T09:55:21.517Z,60.35
2019-01-23T09:57:54.251Z,70.20
2019-01-23T10:00:25.722Z,62.05
2019-01-23T10:02:54.625Z,60.75
2019-01-23T10:05:23.609Z,59.58
2019-01-23T10:07:52.549Z,62.23
2019-01-23T10:10:21.762Z,62.65
2019-01-23T10:12:50.762Z,62.38
2019-01-23T10:15:42.006Z,61.98
2019-01-23T10:18:11.008Z,56.65
2019-01-23T10:20:39.987Z,58.33
2019-01-23T10:23:08.978Z,69.12
2019-01-23T10:25:37.880Z,78.67
2019-01-23T10:28:08.139Z,60.88
2019-01-23T10:30:37.003Z,55.65
2019-01-23T10:33:05.992Z,56.45
2019-01-23T10:35:35.018Z,60.10
2019-01-23T10:38:04.018Z,57.23
2019-01-23T10:40:32.962Z,54.40
2019-01-23T10:43:02.191Z,58.63
2019-01-23T10:45:31.098Z,60.90
2019-01-23T10:48:00.393Z,54.60
2019-01-23T10:50:29.305Z,57.95
2019-01-23T10:52:58.300Z,57.62
2019-01-23T10:55:27.226Z,60.45
2019-01-23T10:57:56.206Z,58.00
2019-01-23T11:00:25.294Z,60.35
2019-01-23T11:02:54.286Z,60.20
2019-01-23T11:05:23.729Z,58.20
2019-01-23T11:07:52.885Z,61.73
2019-01-23T11:10:23.013Z,55.85
2019-01-23T11:12:52.209Z,68.00
2019-01-23T11:15:22.375Z,65.45
2019-01-23T11:17:51.357Z,67.53
2019-01-23T11:20:20.703Z,57.48
2019-01-23T11:23:01.420Z,58.33
2019-01-23T11:25:36.642Z,66.67
2019-01-23T11:28:07.958Z,59.38
2019-01-23T11:30:40.405Z,61.85
2019-01-23T11:33:13.362Z,51.90
2019-01-23T11:35:45.728Z,59.88
2019-01-23T11:38:17.541Z,65.12
2019-01-23T11:40:50.142Z,59.75
2019-01-23T11:43:22.292Z,64.82
2019-01-23T11:45:56.258Z,68.60
2019-01-23T11:48:26.437Z,65.28
2019-01-23T11:51:01.677Z,62.15
2019-01-23T11:53:30.686Z,64.22
2019-01-23T11:56:01.708Z,73.37
2019-01-23T11:58:33.032Z,68.40
2019-01-23T12:01:06.913Z,58.15
2019-01-23T12:03:38.367Z,57.08
2019-01-23T12:06:12.843Z,71.10
2019-01-23T12:08:44.702Z,54.90
2019-01-23T12:11:32.868Z,62.25
2019-01-23T12:14:03.165Z,60.00
2019-01-23T12:16:32.103Z,58.73
2019-01-23T12:19:06.130Z,84.20
2019-01-23T12:21:39.506Z,66.87
2019-01-23T12:24:13.445Z,78.17
2019-01-23T12:26:47.003Z,74.07
2019-01-23T12:29:16.085Z,66.47
2019-01-23T12:31:45.008Z,71.20
2019-01-23T12:34:16.088Z,57.62
2019-01-23T12:36:47.091Z,58.02
2019-01-23T12:39:15.766Z,54.65
2019-01-23T12:41:54.155Z,92.42
2019-01-23T12:44:29.148Z,78.02
2019-01-23T12:47:01.221Z,65.15
2019-01-23T12:49:31.646Z,52.25
2019-01-23T12:52:03.342Z,68.55
2019-01-23T12:54:33.662Z,62.70
2019-01-23T12:57:05.789Z,68.02
2019-01-23T12:59:42.115Z,74.62
2019-01-23T13:02:16.535Z,75.60
2019-01-23T13:04:45.599Z,77.47
2019-01-23T13:07:14.589Z,68.95
2019-01-23T13:09:49.737Z,60.28
2019-01-23T13:12:29.898Z,72.70
2019-01-23T13:14:59.846Z,74.55
2019-01-23T13:17:29.783Z,67.35
2019-01-23T13:19:58.673Z,74.53
2019-01-23T13:22:27.643Z,71.90
2019-01-23T13:24:59.954Z,66.05
2019-01-23T13:27:31.013Z,75.08
2019-01-23T13:29:59.946Z,55.08
2019-01-23T13:32:34.229Z,65.25
2019-01-23T13:35:03.226Z,73.45
2019-01-23T13:37:32.285Z,70.32
2019-01-23T13:40:01.222Z,72.00
2019-01-23T13:42:31.154Z,66.77
2019-01-23T13:45:01.134Z,75.15
2019-01-23T13:47:30.216Z,75.42
2019-01-23T13:49:59.186Z,78.50
2019-01-23T13:52:28.142Z,58.50
2019-01-23T13:54:57.228Z,69.87
2019-01-23T13:57:26.293Z,60.83
2019-01-23T13:59:56.301Z,78.12
2019-01-23T14:02:26.342Z,91.17
2019-01-23T14:04:55.172Z,87.33
2019-01-23T14:07:24.155Z,72.70
2019-01-23T14:09:53.078Z,69.47
2019-01-23T14:12:22.007Z,77.35
2019-01-23T14:14:50.922Z,72.90
2019-01-23T14:17:19.819Z,67.32
2019-01-23T14:19:48.867Z,76.60
2019-01-23T14:22:17.848Z,69.03
2019-01-23T14:24:46.798Z,89.95
2019-01-23T14:27:15.838Z,69.42
2019-01-23T14:29:44.842Z,83.12
2019-01-23T14:32:13.848Z,65.08
2019-01-23T14:34:42.861Z,58.95
2019-01-23T14:37:11.922Z,87.00
2019-01-23T14:39:40.861Z,71.22
2019-01-23T14:42:09.922Z,79.22
2019-01-23T14:44:39.027Z,69.42
2019-01-23T14:47:08.026Z,70.25
2019-01-23T14:49:37.009Z,69.53
2019-01-23T14:52:06.454Z,65.67
2019-01-23T14:54:35.756Z,77.10
2019-01-23T14:57:04.815Z,62.05
2019-01-23T14:59:34.220Z,71.92
2019-01-23T15:02:09.950Z,71.12
2019-01-23T15:04:33.910Z,102.90
2019-01-23T15:07:02.823Z,79.50
2019-01-23T15:09:31.739Z,79.58
2019-01-23T15:12:00.644Z,73.00
2019-01-23T15:14:29.731Z,64.65
2019-01-23T15:16:58.562Z,88.95
2019-01-23T15:19:27.544Z,73.75
2019-01-23T15:21:56.522Z,84.05
2019-01-23T15:24:25.447Z,65.30
2019-01-23T15:26:54.360Z,71.33
2019-01-23T15:29:23.195Z,69.50
2019-01-23T15:31:52.205Z,65.17
2019-01-23T15:34:21.115Z,80.45
2019-01-23T15:36:49.968Z,65.05
2019-01-23T15:39:18.877Z,83.25
2019-01-23T15:41:47.836Z,72.42
2019-01-23T15:44:16.762Z,65.95
2019-01-23T15:46:45.675Z,62.00
2019-01-23T15:49:14.513Z,67.32
2019-01-23T15:51:43.397Z,70.10
2019-01-23T15:54:12.393Z,69.60
2019-01-23T15:56:41.322Z,63.30
2019-01-23T15:59:10.226Z,88.62
2019-01-23T16:01:39.231Z,71.15
2019-01-23T16:04:08.138Z,72.27
2019-01-23T16:06:37.140Z,78.70
2019-01-23T16:09:07.501Z,66.90
2019-01-23T16:11:36.325Z,68.40
2019-01-23T16:14:05.398Z,52.75
2019-01-23T16:16:36.424Z,55.65
2019-01-23T16:19:05.449Z,70.32
2019-01-23T16:21:34.529Z,63.90
2019-01-23T16:24:04.310Z,61.05
2019-01-23T16:26:33.330Z,57.50
2019-01-23T16:29:02.350Z,59.85
2019-01-23T16:31:31.421Z,60.60
2019-01-23T16:34:01.459Z,64.50
2019-01-23T16:36:30.517Z,57.23
2019-01-23T16:38:59.378Z,41.90
2019-01-23T16:41:28.450Z,48.68
2019-01-23T16:43:57.513Z,46.00
2019-01-23T16:46:26.521Z,41.85
2019-01-23T16:48:55.534Z,54.35
2019-01-23T16:51:24.602Z,46.90
2019-01-23T16:53:53.513Z,56.30
2019-01-23T16:56:22.502Z,48.17
2019-01-23T16:58:51.512Z,51.58
2019-01-23T17:01:20.481Z,40.33
2019-01-23T17:03:49.383Z,47.75
2019-01-23T17:06:20.394Z,44.80
2019-01-23T17:08:49.422Z,61.23
2019-01-23T17:11:18.478Z,51.90
2019-01-23T17:13:47.530Z,49.15
2019-01-23T17:16:17.515Z,47.80
2019-01-23T17:18:52.454Z,45.80
2019-01-23T17:21:21.418Z,47.43
2019-01-23T17:23:50.329Z,55.33
2019-01-23T17:26:19.257Z,50.90
2019-01-23T17:28:49.222Z,56.30
2019-01-23T17:31:19.173Z,58.13
2019-01-23T17:33:48.085Z,60.12
2019-01-23T17:36:17.020Z,59.25
2019-01-23T17:38:46.930Z,61.77
2019-01-23T17:41:15.940Z,63.00
2019-01-23T17:43:45.249Z,67.62
2019-01-23T17:46:15.937Z,71.02
2019-01-23T17:48:44.934Z,69.20
2019-01-23T17:51:13.863Z,86.60
2019-01-23T17:53:42.801Z,80.92
2019-01-23T17:56:11.813Z,68.22
2019-01-23T17:58:40.728Z,79.87
2019-01-23T18:01:10.170Z,79.07
2019-01-23T18:03:39.414Z,82.67
2019-01-23T18:06:08.433Z,81.87
2019-01-23T18:08:37.337Z,79.12
2019-01-23T18:11:06.326Z,78.52
2019-01-23T18:13:35.230Z,77.17
2019-01-23T18:16:09.961Z,82.02
2019-01-23T18:18:38.961Z,86.67
2019-01-23T18:21:08.117Z,75.03
2019-01-23T18:23:37.142Z,103.00
2019-01-23T18:26:06.288Z,85.65
2019-01-23T18:28:35.189Z,84.65
2019-01-23T18:31:38.657Z,85.67
2019-01-23T18:34:39.482Z,80.60
2019-01-23T18:37:42.271Z,108.47
2019-01-23T18:40:45.238Z,99.87
2019-01-23T18:43:58.815Z,95.97
2019-01-23T18:47:01.653Z,103.05
2019-01-23T18:49:58.250Z,95.17
2019-01-23T18:52:27.086Z,90.90
2019-01-23T18:54:56.090Z,97.22
2019-01-23T18:57:26.900Z,96.20
2019-01-23T18:59:59.325Z,94.92
2019-01-23T19:02:26.640Z,101.15
2019-01-23T19:04:55.642Z,94.07
2019-01-23T19:07:24.636Z,126.00
2019-01-23T19:09:53.551Z,114.10
2019-01-23T19:12:22.905Z,96.35
2019-01-23T19:14:51.813Z,97.80
2019-01-23T19:17:20.798Z,110.25
2019-01-23T19:19:49.726Z,86.35
2019-01-23T19:22:18.574Z,103.10
2019-01-23T19:24:47.521Z,99.00
2019-01-23T19:27:16.491Z,112.70
2019-01-23T19:29:45.502Z,109.10
2019-01-23T19:34:44.485Z,108.10
2019-01-23T19:37:13.486Z,107.85
2019-01-23T19:39:42.400Z,111.70
2019-01-23T19:42:11.378Z,110.63
2019-01-23T19:44:40.378Z,117.93
2019-01-23T19:47:09.298Z,106.22
2019-01-23T19:49:38.478Z,102.02
2019-01-23T19:52:07.480Z,104.47
2019-01-23T19:54:36.578Z,97.42
2019-01-23T19:57:05.573Z,99.92
2019-01-23T19:59:34.486Z,103.53
2019-01-23T20:02:03.411Z,88.42
2019-01-23T20:04:32.470Z,112.65
2019-01-23T20:07:01.398Z,95.50
2019-01-23T20:09:30.384Z,94.05
2019-01-23T20:11:59.374Z,82.88
2019-01-23T20:14:28.293Z,88.60
2019-01-23T20:16:58.032Z,117.72
2019-01-23T20:19:26.981Z,98.07
2019-01-23T20:21:55.926Z,94.58
2019-01-23T20:24:24.971Z,111.77
2019-01-23T20:26:53.962Z,96.32
2019-01-23T20:29:23.011Z,103.40
2019-01-23T20:31:52.036Z,92.85
2019-01-23T20:34:20.992Z,96.87
2019-01-23T20:37:03.447Z,103.67
2019-01-23T20:39:23.450Z,81.17
2019-01-23T20:42:11.612Z,110.45
2019-01-23T20:44:40.655Z,94.17
2019-01-23T20:47:09.582Z,107.85
2019-01-23T20:49:38.558Z,82.67
2019-01-23T20:52:07.545Z,93.45
2019-01-23T20:54:36.470Z,89.52
2019-01-23T20:57:05.619Z,86.17
2019-01-23T20:59:34.610Z,97.60
2019-01-23T21:02:03.551Z,90.60
2019-01-23T21:04:32.538Z,94.90
2019-01-23T21:07:01.514Z,88.17
2019-01-23T21:09:30.603Z,88.05
2019-01-23T21:11:59.570Z,83.52
2019-01-23T21:14:28.550Z,83.37
2019-01-23T21:16:57.562Z,89.85
2019-01-23T21:19:26.572Z,95.40
2019-01-23T21:21:55.506Z,88.10
2019-01-23T21:24:24.402Z,79.62
2019-01-23T21:26:53.406Z,75.47
2019-01-23T21:29:23.401Z,80.35
2019-01-23T21:31:52.390Z,89.35
2019-01-23T21:34:22.326Z,89.80
2019-01-23T21:36:51.500Z,112.05
2019-01-23T21:39:20.486Z,85.77
2019-01-23T21:41:49.585Z,101.45
2019-01-23T21:44:18.651Z,101.45
2019-01-23T21:46:47.742Z,109.35
2019-01-23T21:49:16.772Z,103.40
2019-01-23T21:51:45.798Z,106.67
2019-01-23T21:54:14.810Z,99.80
2019-01-23T21:56:43.934Z,102.55
2019-01-23T21:59:12.941Z,94.40
2019-01-23T22:01:42.021Z,110.85
2019-01-23T22:04:11.118Z,114.80
2019-01-23T22:06:43.074Z,109.32
2019-01-23T22:09:12.105Z,104.07
2019-01-23T22:11:43.711Z,97.25
2019-01-23T22:14:12.894Z,86.08
2019-01-23T22:16:43.987Z,105.20
2019-01-23T22:19:12.994Z,107.80
2019-01-23T22:21:42.008Z,99.07
2019-01-23T22:24:10.945Z,97.15
2019-01-23T22:26:39.974Z,110.32
2019-01-23T22:29:08.941Z,110.75
2019-01-23T22:31:37.922Z,106.63
2019-01-23T22:34:07.023Z,106.92
2019-01-23T22:36:36.150Z,106.03
2019-01-23T22:39:07.732Z,94.65
2019-01-23T22:41:36.773Z,110.52
2019-01-23T22:44:05.932Z,106.15
2019-01-23T22:46:34.878Z,106.83
2019-01-23T22:49:03.923Z,118.60
2019-01-23T22:51:32.874Z,116.10
2019-01-23T22:54:01.746Z,100.87
2019-01-23T22:56:30.725Z,107.45
2019-01-23T22:58:59.843Z,100.65
2019-01-23T23:01:30.294Z,94.37
2019-01-23T23:04:03.384Z,105.95
2019-01-23T23:06:33.534Z,120.55
2019-01-23T23:09:04.538Z,99.58
2019-01-23T23:11:33.500Z,92.88
2019-01-23T23:14:02.546Z,95.25
2019-01-23T23:16:31.573Z,100.62
2019-01-23T23:19:00.530Z,103.05
2019-01-23T23:21:29.555Z,106.37
2019-01-23T23:23:58.575Z,93.17
2019-01-23T23:26:28.557Z,102.25
2019-01-23T23:28:57.684Z,89.17
2019-01-23T23:31:26.685Z,90.32
2019-01-23T23:33:55.988Z,97.47
2019-01-23T23:36:25.020Z,97.27
2019-01-23T23:38:53.958Z,90.55
2019-01-23T23:41:23.001Z,113.57
2019-01-23T23:43:51.935Z,95.57
2019-01-23T23:46:20.922Z,96.57
2019-01-23T23:48:51.855Z,92.57
2019-01-23T23:51:20.936Z,98.40
2019-01-23T23:53:51.783Z,84.20
2019-01-23T23:56:20.946Z,83.15
2019-01-23T23:58:49.897Z,100.67
